Time;durP1;ratioP1;P1;durP2;ratioP2;P2;SDS_P1;SDS_P2;PMS_P1;PMS_P2;Temp;Humidity;BMP_temperature;BMP_pressure;BME280_temperature;BME280_humidity;BME280_pressure;Samples;Min_cycle;Max_cycle;Signal;HPM_P1;HPM_P2
2021/12/26 00:01:00;;;;;;;9.98;5.28;;;-3.80;99.90;;;;;;5032517;28;20041;-69
2021/12/26 00:03:28;;;;;;;17.30;5.65;;;-3.80;99.90;;;;;;5033278;28;20057;-70
2021/12/26 00:05:56;;;;;;;12.02;5.43;;;-3.80;99.10;;;;;;5033090;28;20084;-70
2021/12/26 00:08:22;;;;;;;9.07;5.30;;;-3.90;99.60;;;;;;5033679;28;20045;-69
2021/12/26 00:10:49;;;;;;;21.17;5.85;;;-3.90;97.40;;;;;;5033409;28;20064;-69
2021/12/26 00:13:16;;;;;;;13.20;4.97;;;-3.80;97.40;;;;;;5033371;28;20469;-70
2021/12/26 00:15:42;;;;;;;12.18;5.57;;;-3.90;97.30;;;;;;5033692;28;20131;-69
2021/12/26 00:18:10;;;;;;;12.98;5.25;;;-3.80;96.30;;;;;;5033140;28;20099;-69
2021/12/26 00:20:37;;;;;;;10.25;4.30;;;-3.80;95.90;;;;;;5033080;28;20042;-70
2021/12/26 00:23:03;;;;;;;11.25;5.00;;;-3.80;94.80;;;;;;5033173;28;20052;-69
2021/12/26 00:25:29;;;;;;;12.02;5.63;;;-3.80;95.20;;;;;;5032539;28;20037;-69
2021/12/26 00:27:54;;;;;;;10.40;4.47;;;-3.70;94.60;;;;;;5041041;28;20077;-69
2021/12/26 00:30:21;;;;;;;11.50;4.90;;;-3.70;95.10;;;;;;5055756;28;20033;-70
2021/12/26 00:32:48;;;;;;;13.05;3.88;;;-3.80;94.00;;;;;;5055616;28;20029;-69
2021/12/26 00:35:17;;;;;;;11.13;4.50;;;-3.80;92.80;;;;;;5036692;28;20042;-69
2021/12/26 00:37:43;;;;;;;8.70;4.47;;;-3.90;92.60;;;;;;5032237;28;20041;-69
2021/12/26 00:40:10;;;;;;;13.73;5.07;;;-3.80;92.30;;;;;;5027836;28;20083;-69
2021/12/26 00:42:36;;;;;;;8.05;3.75;;;-3.80;93.50;;;;;;5012557;28;20052;-69
2021/12/26 00:45:04;;;;;;;10.63;4.05;;;-3.90;92.00;;;;;;5012711;28;20041;-69
2021/12/26 00:47:32;;;;;;;9.02;4.25;;;-3.80;91.40;;;;;;5013245;28;20038;-69
2021/12/26 00:49:58;;;;;;;6.07;4.07;;;-3.80;92.30;;;;;;5012272;28;20041;-69
2021/12/26 00:52:24;;;;;;;11.40;3.97;;;-3.80;91.40;;;;;;5013063;28;20045;-69
2021/12/26 00:54:50;;;;;;;9.07;3.63;;;-3.80;91.40;;;;;;5013310;28;20449;-70
2021/12/26 00:57:15;;;;;;;7.20;3.70;;;-3.80;90.00;;;;;;5027704;28;20050;-70
2021/12/26 00:59:41;;;;;;;6.57;4.18;;;-3.80;90.20;;;;;;5013084;28;20045;-69
2021/12/26 01:02:06;;;;;;;6.05;4.20;;;-3.80;85.50;;;;;;5012442;28;20391;-70
2021/12/26 01:04:32;;;;;;;8.60;3.65;;;-3.80;84.20;;;;;;5013164;28;20125;-69
2021/12/26 01:06:59;;;;;;;5.97;3.15;;;-3.80;79.60;;;;;;5012952;28;20506;-70
2021/12/26 01:09:28;;;;;;;7.80;3.15;;;-3.80;82.80;;;;;;5030607;28;20068;-70
2021/12/26 01:11:59;;;;;;;7.88;3.10;;;-3.80;84.90;;;;;;5037657;28;20029;-69
2021/12/26 01:14:29;;;;;;;7.65;3.72;;;-3.80;86.80;;;;;;5036951;28;20060;-70
2021/12/26 01:17:04;;;;;;;7.30;3.05;;;-3.80;82.30;;;;;;5025537;28;20042;-69
2021/12/26 01:19:40;;;;;;;5.82;3.08;;;-3.80;79.50;;;;;;5013745;28;20045;-70
2021/12/26 01:22:06;;;;;;;4.80;2.85;;;-3.80;81.30;;;;;;5027572;28;20042;-70
2021/12/26 01:24:31;;;;;;;7.53;3.05;;;-3.80;82.30;;;;;;5012260;28;20097;-70
2021/12/26 01:26:57;;;;;;;12.13;3.15;;;-3.80;79.10;;;;;;5012666;28;20911;-70
2021/12/26 01:29:23;;;;;;;3.67;2.92;;;-3.70;77.70;;;;;;5012052;28;20513;-70
2021/12/26 01:31:48;;;;;;;4.68;2.72;;;-3.90;76.10;;;;;;5012104;28;20435;-70
2021/12/26 01:34:14;;;;;;;4.45;2.72;;;-3.80;80.90;;;;;;5012323;28;20406;-70
2021/12/26 01:36:39;;;;;;;5.72;3.28;;;-3.80;80.70;;;;;;5012461;28;20486;-70
2021/12/26 01:39:08;;;;;;;7.22;3.38;;;-3.80;78.40;;;;;;5011998;28;20532;-70
2021/12/26 01:41:39;;;;;;;10.30;4.00;;;-3.70;78.80;;;;;;5012008;28;20061;-69
2021/12/26 01:44:08;;;;;;;13.35;4.40;;;-3.80;76.20;;;;;;5012130;28;20411;-70
2021/12/26 01:46:34;;;;;;;13.10;3.90;;;-3.80;74.00;;;;;;5012029;28;20042;-70
2021/12/26 01:49:04;;;;;;;6.88;3.25;;;-3.80;71.90;;;;;;5012180;28;20044;-70
2021/12/26 01:51:30;;;;;;;8.23;4.18;;;-3.90;71.20;;;;;;5011829;28;20046;-70
2021/12/26 01:53:57;;;;;;;8.25;3.30;;;-3.80;70.40;;;;;;5011788;28;20068;-70
2021/12/26 01:56:23;;;;;;;6.53;2.88;;;-3.80;71.10;;;;;;5011451;28;20457;-70
2021/12/26 01:58:48;;;;;;;6.93;3.05;;;-3.90;72.60;;;;;;5014468;28;20101;-70
2021/12/26 02:01:14;;;;;;;12.52;4.55;;;-4.00;73.80;;;;;;5034209;28;20130;-70
2021/12/26 02:03:41;;;;;;;7.38;3.63;;;-3.80;73.00;;;;;;5033994;28;20033;-70
2021/12/26 02:06:08;;;;;;;5.80;3.00;;;-4.00;72.40;;;;;;5014205;28;20499;-70
2021/12/26 02:08:35;;;;;;;4.13;2.90;;;-3.90;73.90;;;;;;5027110;28;20053;-70
2021/12/26 02:11:02;;;;;;;5.63;3.00;;;-4.00;75.00;;;;;;5011899;28;20116;-69
2021/12/26 02:13:29;;;;;;;4.57;2.83;;;-4.00;76.00;;;;;;5011625;28;20046;-70
2021/12/26 02:15:54;;;;;;;3.25;2.33;;;-4.00;75.90;;;;;;5027155;28;20085;-69
2021/12/26 02:18:21;;;;;;;6.85;2.72;;;-4.10;75.30;;;;;;4994248;28;20526;-70
2021/12/26 02:28:25;;;;;;;3.13;2.47;;;-4.10;75.60;;;;;;5026445;28;20054;-70
2021/12/26 02:30:54;;;;;;;4.13;2.50;;;-4.20;77.00;;;;;;5011872;28;20038;-70
2021/12/26 02:33:20;;;;;;;3.80;2.72;;;-4.10;78.50;;;;;;5026354;28;20091;-70
2021/12/26 02:35:47;;;;;;;6.18;2.35;;;-4.00;76.30;;;;;;5026635;28;20046;-70
2021/12/26 02:38:14;;;;;;;5.82;2.88;;;-4.20;76.70;;;;;;5011497;28;20042;-70
2021/12/26 02:40:42;;;;;;;5.45;2.70;;;-4.10;77.50;;;;;;5011845;28;20038;-70
2021/12/26 02:43:08;;;;;;;4.05;2.42;;;-4.20;79.20;;;;;;5009714;28;20105;-70
2021/12/26 02:45:34;;;;;;;3.08;2.42;;;-4.10;79.60;;;;;;5011343;28;20054;-70
2021/12/26 02:48:00;;;;;;;4.45;2.97;;;-4.10;77.30;;;;;;5026634;28;20073;-68
2021/12/26 02:50:28;;;;;;;3.42;2.40;;;-4.20;78.30;;;;;;5011316;28;20050;-68
2021/12/26 02:52:55;;;;;;;3.63;2.60;;;-4.20;77.20;;;;;;5011505;28;20034;-68
2021/12/26 02:55:21;;;;;;;4.05;2.65;;;-4.20;78.00;;;;;;5011387;28;20125;-68
2021/12/26 02:57:49;;;;;;;4.63;2.63;;;-4.20;80.10;;;;;;5011190;28;20042;-69
2021/12/26 03:00:19;;;;;;;3.40;3.03;;;-4.10;77.00;;;;;;5011582;28;20069;-69
2021/12/26 03:02:52;;;;;;;7.40;3.40;;;-4.10;77.70;;;;;;5024455;28;20032;-69
2021/12/26 03:05:18;;;;;;;;;;;-4.10;78.60;;;;;;5037730;28;20064;-70
2021/12/26 03:07:46;;;;;;;12.25;4.47;;;-4.20;79.00;;;;;;5035213;28;19921;-69
2021/12/26 03:10:21;;;;;;;13.43;5.32;;;-4.20;79.00;;;;;;5015391;28;20041;-69
2021/12/26 03:12:48;;;;;;;13.13;5.47;;;-4.20;78.90;;;;;;5029182;28;20038;-69
2021/12/26 03:15:14;;;;;;;9.20;4.18;;;-4.20;78.00;;;;;;5016147;28;20041;-69
2021/12/26 03:17:40;;;;;;;14.20;5.50;;;-4.20;77.10;;;;;;5016116;28;20114;-70
2021/12/26 03:20:10;;;;;;;14.90;5.07;;;-4.30;77.60;;;;;;5015411;28;20042;-69
2021/12/26 03:22:36;;;;;;;15.43;5.60;;;-4.20;78.20;;;;;;5014743;28;20383;-69
2021/12/26 03:25:09;;;;;;;13.52;5.32;;;-4.20;76.80;;;;;;5030623;28;20037;-70
2021/12/26 03:27:35;;;;;;;12.30;3.95;;;-4.20;77.80;;;;;;5014934;28;20038;-69
2021/12/26 03:30:01;;;;;;;11.40;3.90;;;-4.20;77.30;;;;;;5015458;28;20045;-70
2021/12/26 03:32:26;;;;;;;8.60;4.32;;;-4.20;79.00;;;;;;5015564;28;20076;-69
2021/12/26 03:34:52;;;;;;;8.93;4.20;;;-4.20;79.30;;;;;;5015769;28;20038;-70
2021/12/26 03:37:18;;;;;;;9.18;4.13;;;-4.10;79.90;;;;;;5030446;28;20080;-69
2021/12/26 03:39:44;;;;;;;7.13;3.70;;;-4.20;76.00;;;;;;5037506;28;20041;-70
2021/12/26 03:42:10;;;;;;;5.55;3.47;;;-4.20;75.80;;;;;;5025594;28;20045;-70
2021/12/26 03:44:36;;;;;;;6.93;3.30;;;-4.10;77.00;;;;;;5014743;28;20537;-70
2021/12/26 03:47:03;;;;;;;5.90;3.42;;;-4.10;75.70;;;;;;5014500;28;20077;-70
2021/12/26 03:49:28;;;;;;;7.53;3.20;;;-4.20;72.10;;;;;;5014321;28;20080;-70
2021/12/26 03:51:54;;;;;;;6.45;3.75;;;-4.10;72.10;;;;;;5012690;28;20037;-70
2021/12/26 03:54:19;;;;;;;6.80;3.22;;;-4.10;71.50;;;;;;5014486;28;20553;-70
2021/12/26 03:56:45;;;;;;;4.25;2.92;;;-4.30;71.40;;;;;;5013788;28;20045;-70
2021/12/26 03:59:11;;;;;;;6.32;3.60;;;-4.20;72.60;;;;;;5014152;28;20542;-70
2021/12/26 04:01:36;;;;;;;8.70;4.25;;;-4.10;73.80;;;;;;5014050;28;20099;-70
2021/12/26 04:04:03;;;;;;;8.65;3.97;;;-4.10;72.70;;;;;;5013881;28;20410;-70
2021/12/26 04:06:28;;;;;;;8.07;3.38;;;-4.10;72.20;;;;;;5013667;28;20057;-70
2021/12/26 04:08:54;;;;;;;10.93;3.60;;;-4.20;71.70;;;;;;5014170;28;20038;-70
2021/12/26 04:11:20;;;;;;;13.88;4.45;;;-4.20;72.80;;;;;;5014201;28;20034;-70
2021/12/26 04:13:46;;;;;;;5.80;3.75;;;-4.20;74.10;;;;;;5029055;28;20046;-70
2021/12/26 04:16:12;;;;;;;5.90;3.63;;;-4.10;72.50;;;;;;5014041;28;20037;-70
2021/12/26 04:18:37;;;;;;;6.78;3.97;;;-4.20;72.50;;;;;;5013697;28;20057;-70
2021/12/26 04:21:05;;;;;;;4.65;2.90;;;-4.30;73.20;;;;;;5013755;28;20395;-70
2021/12/26 04:23:31;;;;;;;4.25;2.70;;;-4.20;74.50;;;;;;5013369;28;20564;-69
2021/12/26 04:25:57;;;;;;;4.53;3.33;;;-4.20;74.50;;;;;;5014230;28;20124;-69
2021/12/26 04:28:23;;;;;;;4.80;3.40;;;-4.20;75.10;;;;;;5013462;28;20077;-69
2021/12/26 04:30:48;;;;;;;5.53;3.08;;;-4.20;74.10;;;;;;5013893;28;20498;-70
2021/12/26 04:33:14;;;;;;;4.65;2.83;;;-4.20;76.00;;;;;;5013102;28;20469;-70
2021/12/26 04:35:40;;;;;;;7.03;3.20;;;-4.20;74.50;;;;;;5028540;28;20044;-70
2021/12/26 04:38:05;;;;;;;5.78;3.55;;;-4.20;73.20;;;;;;5013576;28;20069;-70
2021/12/26 04:40:31;;;;;;;6.75;3.35;;;-4.30;73.90;;;;;;5013528;28;20045;-70
2021/12/26 04:42:57;;;;;;;4.57;3.30;;;-4.30;74.80;;;;;;5013156;28;20411;-70
2021/12/26 04:45:23;;;;;;;4.32;3.03;;;-4.30;74.70;;;;;;5013170;28;20140;-70
2021/12/26 04:47:49;;;;;;;4.40;3.50;;;-4.30;74.80;;;;;;5011802;28;20053;-70
2021/12/26 04:50:20;;;;;;;4.43;3.10;;;-4.30;74.10;;;;;;5012119;28;20038;-70
2021/12/26 04:52:46;;;;;;;6.28;3.20;;;-4.30;74.10;;;;;;5028507;28;20270;-69
2021/12/26 04:55:14;;;;;;;4.38;3.08;;;-4.30;75.10;;;;;;5014033;28;20042;-69
2021/12/26 04:57:40;;;;;;;4.72;3.38;;;-4.40;74.80;;;;;;5013648;28;20560;-70
2021/12/26 05:00:11;;;;;;;5.88;3.05;;;-4.30;74.50;;;;;;5037736;28;20042;-70
2021/12/26 05:02:38;;;;;;;4.18;3.15;;;-4.40;73.80;;;;;;5051291;28;20030;-69
2021/12/26 05:05:07;;;;;;;3.17;2.88;;;-4.30;73.80;;;;;;5021714;28;20038;-69
2021/12/26 05:07:33;;;;;;;6.20;3.05;;;-4.40;74.40;;;;;;5028903;28;20077;-69
2021/12/26 05:09:59;;;;;;;8.73;3.70;;;-4.30;74.80;;;;;;5013665;28;20030;-69
2021/12/26 05:12:25;;;;;;;5.93;3.47;;;-4.30;73.40;;;;;;5013258;28;20062;-69
2021/12/26 05:14:51;;;;;;;6.95;3.33;;;-4.30;73.30;;;;;;5019027;28;20045;-69
2021/12/26 05:17:17;;;;;;;5.82;3.15;;;-4.30;74.00;;;;;;5037138;28;20084;-69
2021/12/26 05:19:43;;;;;;;6.72;3.70;;;-4.30;73.40;;;;;;5034744;28;20041;-69
2021/12/26 05:22:08;;;;;;;6.47;3.40;;;-4.30;74.40;;;;;;5015338;28;20042;-69
2021/12/26 05:24:34;;;;;;;6.85;3.65;;;-4.20;74.50;;;;;;5013301;28;20042;-69
2021/12/26 05:27:00;;;;;;;6.43;4.05;;;-4.30;74.60;;;;;;5012943;28;20384;-69
2021/12/26 05:29:25;;;;;;;6.13;3.40;;;-4.30;74.10;;;;;;5027775;28;20080;-69
2021/12/26 05:31:52;;;;;;;7.88;3.97;;;-4.20;75.20;;;;;;5012658;28;20068;-69
2021/12/26 05:34:20;;;;;;;8.20;4.28;;;-4.30;75.30;;;;;;5012186;28;20046;-69
2021/12/26 05:36:46;;;;;;;4.97;3.65;;;-4.20;73.00;;;;;;5012152;28;20119;-70
2021/12/26 05:39:12;;;;;;;6.85;3.95;;;-4.30;71.90;;;;;;5012340;28;20141;-70
2021/12/26 05:41:39;;;;;;;6.68;4.32;;;-4.30;73.40;;;;;;5012130;28;20088;-70
2021/12/26 05:44:05;;;;;;;5.15;3.25;;;-4.20;72.80;;;;;;5012093;28;20057;-70
2021/12/26 05:46:30;;;;;;;11.98;4.65;;;-4.10;73.10;;;;;;5012242;28;20427;-70
2021/12/26 05:48:56;;;;;;;7.97;4.50;;;-4.20;72.50;;;;;;5012215;28;20030;-69
2021/12/26 05:51:21;;;;;;;7.95;4.47;;;-4.10;72.00;;;;;;5012127;28;20042;-69
2021/12/26 05:53:47;;;;;;;8.68;4.15;;;-4.20;72.10;;;;;;5011785;28;20034;-70
2021/12/26 05:56:12;;;;;;;6.50;4.13;;;-4.10;72.90;;;;;;5011488;28;20067;-69
2021/12/26 05:58:39;;;;;;;10.73;4.78;;;-4.10;71.00;;;;;;5012175;28;20530;-69
2021/12/26 06:01:05;;;;;;;6.82;4.40;;;-4.10;71.10;;;;;;5012638;28;20041;-70
2021/12/26 06:03:31;;;;;;;9.18;4.65;;;-4.10;72.00;;;;;;5011962;28;20125;-69
2021/12/26 06:05:57;;;;;;;8.80;4.45;;;-4.20;72.80;;;;;;5012314;28;20506;-69
2021/12/26 06:08:22;;;;;;;8.70;4.32;;;-4.20;72.50;;;;;;5011894;28;20049;-69
2021/12/26 06:10:48;;;;;;;6.68;4.43;;;-4.20;71.50;;;;;;5011754;28;20042;-69
2021/12/26 06:13:14;;;;;;;7.90;3.90;;;-4.10;71.90;;;;;;5011815;28;20498;-69
2021/12/26 06:15:39;;;;;;;8.98;4.47;;;-4.00;72.50;;;;;;5027051;28;20064;-69
2021/12/26 06:18:05;;;;;;;8.35;3.72;;;-4.10;71.40;;;;;;5011793;28;20562;-69
2021/12/26 06:20:30;;;;;;;6.78;4.05;;;-4.10;72.40;;;;;;5011706;28;20053;-69
2021/12/26 06:22:56;;;;;;;8.63;4.72;;;-4.10;72.00;;;;;;5010626;28;20049;-69
2021/12/26 06:25:21;;;;;;;6.70;3.72;;;-4.10;70.70;;;;;;5011541;28;20034;-69
2021/12/26 06:27:47;;;;;;;8.77;4.90;;;-4.00;71.80;;;;;;5009927;28;20056;-69
2021/12/26 06:30:13;;;;;;;7.95;3.33;;;-4.00;73.10;;;;;;5011324;28;20037;-69
2021/12/26 06:32:39;;;;;;;5.72;3.60;;;-4.10;73.40;;;;;;5009830;28;20604;-69
2021/12/26 06:35:06;;;;;;;7.63;4.18;;;-4.00;73.20;;;;;;5011384;28;20049;-69
2021/12/26 06:37:31;;;;;;;4.55;3.60;;;-4.10;73.00;;;;;;5011487;28;20052;-70
2021/12/26 06:39:59;;;;;;;5.82;3.60;;;-4.10;74.50;;;;;;5011225;28;20050;-69
2021/12/26 06:42:25;;;;;;;5.90;3.47;;;-4.10;76.10;;;;;;5009994;28;20052;-69
2021/12/26 06:44:51;;;;;;;6.00;3.50;;;-4.10;76.70;;;;;;5010203;28;20494;-69
2021/12/26 06:47:17;;;;;;;9.90;4.20;;;-4.10;78.00;;;;;;5029692;28;20049;-69
2021/12/26 06:49:43;;;;;;;8.27;3.90;;;-4.00;77.90;;;;;;5015468;28;20037;-69
2021/12/26 06:52:09;;;;;;;7.22;3.90;;;-4.10;76.40;;;;;;5013770;28;20383;-70
2021/12/26 06:54:36;;;;;;;8.23;4.05;;;-4.10;77.60;;;;;;5021488;28;20085;-70
2021/12/26 06:57:03;;;;;;;7.38;3.60;;;-4.10;79.50;;;;;;5039637;28;20026;-70
2021/12/26 06:59:28;;;;;;;8.15;3.95;;;-4.30;77.10;;;;;;5039820;28;20026;-69
2021/12/26 07:01:54;;;;;;;4.43;3.33;;;-4.30;79.90;;;;;;5039441;28;20100;-69
2021/12/26 07:04:20;;;;;;;5.63;3.58;;;-4.20;79.30;;;;;;5037909;28;20080;-69
2021/12/26 07:06:46;;;;;;;5.85;3.80;;;-4.20;81.80;;;;;;5018387;28;20038;-68
2021/12/26 07:09:11;;;;;;;6.60;4.32;;;-4.30;82.20;;;;;;5014829;28;20034;-68
2021/12/26 07:11:37;;;;;;;6.45;3.90;;;-4.20;83.00;;;;;;5015712;28;20034;-68
2021/12/26 07:14:02;;;;;;;5.50;3.85;;;-4.20;85.00;;;;;;5015739;28;20189;-69
2021/12/26 07:16:28;;;;;;;4.57;3.13;;;-4.30;86.90;;;;;;5015414;28;20053;-69
2021/12/26 07:18:53;;;;;;;3.42;3.13;;;-4.20;84.20;;;;;;5014837;28;20033;-69
2021/12/26 07:21:19;;;;;;;7.40;3.80;;;-4.30;84.90;;;;;;5015127;28;20033;-69
2021/12/26 07:23:45;;;;;;;4.78;3.28;;;-4.30;84.80;;;;;;5014614;28;20034;-69
2021/12/26 07:26:10;;;;;;;4.20;3.50;;;-4.20;86.20;;;;;;5015587;28;20041;-68
2021/12/26 07:28:36;;;;;;;4.55;3.78;;;-4.30;85.50;;;;;;5014518;28;20676;-69
2021/12/26 07:31:02;;;;;;;4.70;3.60;;;-4.30;85.20;;;;;;5014563;28;20041;-69
2021/12/26 07:33:28;;;;;;;4.10;3.42;;;-4.30;86.50;;;;;;5011011;28;20045;-69
2021/12/26 07:35:53;;;;;;;7.93;4.43;;;-4.40;86.60;;;;;;5010353;28;20041;-69
2021/12/26 07:38:19;;;;;;;6.30;3.50;;;-4.30;90.40;;;;;;5013479;28;20097;-69
2021/12/26 07:40:47;;;;;;;8.50;4.10;;;-4.40;89.60;;;;;;5014678;28;20498;-70
2021/12/26 07:43:13;;;;;;;8.50;4.20;;;-4.30;83.10;;;;;;5012033;28;20042;-70
2021/12/26 07:45:39;;;;;;;12.02;4.72;;;-4.30;81.80;;;;;;5013149;28;20115;-70
2021/12/26 07:48:05;;;;;;;8.70;4.35;;;-4.20;83.00;;;;;;5013639;28;20048;-70
2021/12/26 07:50:31;;;;;;;8.50;4.47;;;-4.20;83.10;;;;;;5013232;28;20037;-69
2021/12/26 07:53:03;;;;;;;7.43;4.28;;;-4.20;82.90;;;;;;5013866;28;20049;-70
2021/12/26 07:55:29;;;;;;;7.38;4.28;;;-4.30;83.20;;;;;;5028371;28;20503;-70
2021/12/26 07:57:54;;;;;;;7.75;4.38;;;-4.30;84.10;;;;;;5008481;28;20045;-68
2021/12/26 08:00:20;;;;;;;6.05;4.00;;;-4.20;84.70;;;;;;5024518;28;20042;-69
2021/12/26 08:02:46;;;;;;;11.15;4.68;;;-4.20;81.10;;;;;;5027188;28;20450;-69
2021/12/26 08:05:12;;;;;;;9.63;4.88;;;-4.20;82.80;;;;;;5012974;28;20074;-70
2021/12/26 08:07:38;;;;;;;8.35;4.43;;;-4.20;81.80;;;;;;5014727;28;20053;-69
2021/12/26 08:10:04;;;;;;;9.48;5.00;;;-4.20;80.60;;;;;;5024496;28;20048;-69
2021/12/26 08:12:30;;;;;;;8.27;4.95;;;-4.20;81.60;;;;;;5030252;28;20037;-69
2021/12/26 08:14:56;;;;;;;13.52;6.00;;;-4.20;81.00;;;;;;5030908;28;20463;-69
2021/12/26 08:17:21;;;;;;;9.88;5.03;;;-4.20;81.60;;;;;;5032582;28;20045;-69
2021/12/26 08:19:47;;;;;;;9.43;5.20;;;-4.30;79.80;;;;;;5032127;28;20796;-69
2021/12/26 08:22:13;;;;;;;11.70;5.88;;;-4.20;81.10;;;;;;5033611;28;20033;-69
2021/12/26 08:24:38;;;;;;;15.85;5.60;;;-4.30;80.70;;;;;;5055612;28;20060;-69
2021/12/26 08:27:04;;;;;;;15.35;7.05;;;-4.30;82.60;;;;;;5047339;28;20030;-69
2021/12/26 08:29:30;;;;;;;16.10;7.72;;;-4.20;80.60;;;;;;5033692;28;20069;-69
2021/12/26 08:31:58;;;;;;;25.48;10.40;;;-4.20;81.10;;;;;;5032891;28;20046;-69
2021/12/26 08:34:23;;;;;;;25.73;10.45;;;-4.20;81.10;;;;;;5032564;28;20053;-69
2021/12/26 08:36:58;;;;;;;29.85;11.25;;;-4.20;80.40;;;;;;5050486;28;20056;-70
2021/12/26 08:39:25;;;;;;;30.17;11.52;;;-4.20;79.80;;;;;;5050980;28;20041;-70
2021/12/26 08:41:50;;;;;;;28.90;11.02;;;-4.10;81.10;;;;;;5028823;28;20418;-70
2021/12/26 08:44:16;;;;;;;15.20;6.75;;;-4.10;78.30;;;;;;5031870;28;20041;-69
2021/12/26 08:46:43;;;;;;;19.65;8.35;;;-4.20;78.90;;;;;;5029939;28;20049;-69
2021/12/26 08:49:09;;;;;;;21.98;8.90;;;-4.10;80.10;;;;;;5032991;28;20048;-69
2021/12/26 08:51:35;;;;;;;18.20;8.30;;;-4.00;79.30;;;;;;5032485;28;20036;-69
2021/12/26 08:54:02;;;;;;;16.35;8.82;;;-4.00;80.00;;;;;;5030508;28;20441;-69
2021/12/26 08:56:29;;;;;;;17.27;8.20;;;-4.00;80.20;;;;;;5032311;28;20048;-69
2021/12/26 08:58:55;;;;;;;19.85;8.20;;;-4.00;77.20;;;;;;5031604;28;20044;-69
2021/12/26 09:01:20;;;;;;;16.90;7.88;;;-3.90;76.40;;;;;;5032441;28;20120;-69
2021/12/26 09:03:46;;;;;;;12.90;6.30;;;-3.90;76.30;;;;;;5031457;28;20094;-69
2021/12/26 09:06:11;;;;;;;9.18;5.00;;;-3.90;74.80;;;;;;5028622;28;20066;-68
2021/12/26 09:08:37;;;;;;;5.85;4.00;;;-3.80;75.20;;;;;;5046658;28;20116;-69
2021/12/26 09:11:06;;;;;;;8.02;4.43;;;-3.70;76.20;;;;;;5012514;28;20053;-69
2021/12/26 09:13:33;;;;;;;7.63;4.43;;;-3.80;75.20;;;;;;5010332;28;20487;-69
2021/12/26 09:15:59;;;;;;;7.15;4.22;;;-3.80;76.00;;;;;;5010222;28;20057;-69
2021/12/26 09:18:25;;;;;;;6.85;4.40;;;-3.70;76.30;;;;;;5026585;28;20461;-68
2021/12/26 09:20:50;;;;;;;7.38;4.93;;;-3.70;76.70;;;;;;5011102;28;20042;-69
2021/12/26 09:23:16;;;;;;;7.82;4.35;;;-3.60;76.20;;;;;;5011116;28;20034;-68
2021/12/26 09:25:42;;;;;;;7.22;3.90;;;-3.70;75.80;;;;;;5010911;28;20125;-69
2021/12/26 09:28:09;;;;;;;5.07;4.00;;;-3.60;75.40;;;;;;5010362;28;20038;-70
2021/12/26 09:30:35;;;;;;;6.32;4.50;;;-3.60;76.90;;;;;;5027680;28;20048;-69
2021/12/26 09:33:01;;;;;;;9.27;4.43;;;-3.60;75.60;;;;;;5024660;28;20107;-69
2021/12/26 09:35:26;;;;;;;10.75;4.25;;;-3.60;77.80;;;;;;5031521;28;20041;-69
2021/12/26 09:37:52;;;;;;;10.63;5.25;;;-3.60;77.30;;;;;;5031336;28;20124;-70
2021/12/26 09:40:18;;;;;;;8.07;4.70;;;-3.50;80.20;;;;;;5039745;28;20045;-70
2021/12/26 09:42:47;;;;;;;9.38;5.07;;;-3.40;78.30;;;;;;5038538;28;20044;-70
2021/12/26 09:45:14;;;;;;;6.38;4.80;;;-3.30;79.50;;;;;;5046475;28;20061;-70
2021/12/26 09:47:41;;;;;;;8.10;4.72;;;-3.30;78.80;;;;;;5030448;28;20124;-69
2021/12/26 09:50:10;;;;;;;9.00;4.97;;;-3.10;95.10;;;;;;5030075;28;20037;-70
2021/12/26 09:52:36;;;;;;;9.05;5.15;;;-3.10;78.20;;;;;;5028942;28;20072;-70
2021/12/26 09:55:02;;;;;;;9.48;4.63;;;-3.20;79.20;;;;;;5030205;28;20122;-69
2021/12/26 09:57:29;;;;;;;7.20;4.90;;;-3.10;80.70;;;;;;5029092;28;20046;-72
2021/12/26 09:59:55;;;;;;;7.55;4.93;;;-3.00;80.60;;;;;;5035401;28;20042;-70
2021/12/26 10:02:20;;;;;;;6.68;4.78;;;-3.10;80.20;;;;;;5050837;28;20022;-72
2021/12/26 10:04:48;;;;;;;9.30;4.60;;;-3.00;81.50;;;;;;5043340;28;20746;-72
2021/12/26 10:07:22;;;;;;;8.05;4.43;;;-3.00;81.90;;;;;;5023683;28;20042;-72
2021/12/26 10:09:50;;;;;;;8.75;4.97;;;-2.90;80.70;;;;;;5010975;28;20050;-72
2021/12/26 10:12:19;;;;;;;9.93;4.97;;;-2.90;82.70;;;;;;5016380;28;20041;-72
2021/12/26 10:14:49;;;;;;;6.47;4.75;;;-2.80;83.30;;;;;;5030950;28;20527;-71
2021/12/26 10:17:23;;;;;;;6.05;4.65;;;-2.80;81.70;;;;;;5030098;28;20041;-72
2021/12/26 10:19:50;;;;;;;5.97;4.78;;;-2.80;80.10;;;;;;5030010;28;20505;-71
2021/12/26 10:22:21;;;;;;;6.43;4.55;;;-2.70;81.60;;;;;;5044845;28;20064;-71
2021/12/26 10:24:49;;;;;;;9.30;5.40;;;-2.70;81.80;;;;;;5030251;28;20094;-72
2021/12/26 10:27:20;;;;;;;9.57;5.57;;;-2.50;84.10;;;;;;5014308;28;20038;-71
2021/12/26 10:29:48;;;;;;;8.68;5.55;;;-2.60;83.90;;;;;;5012531;28;20117;-71
2021/12/26 10:32:25;;;;;;;8.73;5.22;;;-2.40;82.50;;;;;;5009912;28;20046;-71
2021/12/26 10:34:53;;;;;;;7.22;4.95;;;-2.30;87.40;;;;;;5010386;28;20056;-70
2021/12/26 10:37:21;;;;;;;9.05;5.20;;;-2.30;86.20;;;;;;5010179;28;20077;-71
2021/12/26 10:39:59;;;;;;;12.45;5.22;;;-2.30;86.90;;;;;;5010070;28;20046;-71
2021/12/26 10:42:30;;;;;;;9.10;5.10;;;-2.30;84.40;;;;;;5024695;28;20045;-70
2021/12/26 10:44:56;;;;;;;10.07;4.78;;;-2.20;86.20;;;;;;5010101;28;20041;-70
2021/12/26 10:47:28;;;;;;;7.63;4.60;;;-2.30;86.50;;;;;;5010166;28;20112;-70
2021/12/26 10:50:15;;;;;;;8.67;5.40;;;-2.20;85.50;;;;;;5010771;28;20096;-70
2021/12/26 10:52:59;;;;;;;10.52;5.57;;;-2.20;87.20;;;;;;5008765;28;20633;-70
2021/12/26 10:55:49;;;;;;;9.02;5.55;;;-2.20;88.70;;;;;;5015923;28;20121;-70
2021/12/26 10:58:21;;;;;;;8.52;5.65;;;-2.00;88.60;;;;;;5015337;28;20069;-70
2021/12/26 11:00:56;;;;;;;13.45;5.25;;;-2.10;88.40;;;;;;5011366;28;20121;-71
2021/12/26 11:03:28;;;;;;;7.75;5.15;;;-2.00;85.50;;;;;;5010073;28;20042;-70
2021/12/26 11:06:00;;;;;;;8.70;5.50;;;-2.10;85.40;;;;;;5010448;28;20124;-71
2021/12/26 11:08:42;;;;;;;10.03;5.80;;;-2.00;89.80;;;;;;5010827;28;20048;-70
2021/12/26 11:11:23;;;;;;;8.25;5.57;;;-2.00;88.80;;;;;;5010169;28;20906;-69
2021/12/26 11:13:50;;;;;;;9.10;5.38;;;-1.90;90.10;;;;;;5025236;28;20056;-70
2021/12/26 11:16:16;;;;;;;7.95;4.95;;;-1.80;89.20;;;;;;5013347;28;20046;-70
2021/12/26 11:18:42;;;;;;;9.18;5.97;;;-1.90;90.50;;;;;;5028029;28;20037;-70
2021/12/26 11:21:12;;;;;;;9.68;4.70;;;-1.80;90.10;;;;;;5014297;28;20049;-71
2021/12/26 11:23:40;;;;;;;8.48;5.55;;;-2.00;89.50;;;;;;5022698;28;20129;-69
2021/12/26 11:26:16;;;;;;;6.70;4.82;;;-1.70;91.10;;;;;;5049576;28;20065;-69
2021/12/26 11:28:45;;;;;;;9.48;5.03;;;-1.80;88.80;;;;;;5023024;28;20046;-69
2021/12/26 11:31:17;;;;;;;9.77;5.53;;;-1.80;90.40;;;;;;5012990;28;20065;-69
2021/12/26 11:33:43;;;;;;;10.05;5.30;;;-1.60;92.00;;;;;;5030033;28;20595;-69
2021/12/26 11:36:11;;;;;;;8.98;5.28;;;-1.70;90.90;;;;;;5016354;28;20038;-68
2021/12/26 11:38:39;;;;;;;7.35;5.32;;;-1.70;90.60;;;;;;5016752;28;20180;-69
2021/12/26 11:41:08;;;;;;;6.88;5.22;;;-1.60;90.10;;;;;;5017575;28;20552;-69
2021/12/26 11:43:59;;;;;;;8.63;5.57;;;-1.60;90.30;;;;;;5016812;28;20049;-69
2021/12/26 11:46:45;;;;;;;11.85;5.38;;;-1.60;91.40;;;;;;5016542;28;20403;-70
2021/12/26 11:49:18;;;;;;;9.75;5.43;;;-1.60;91.40;;;;;;5015999;28;20042;-70
2021/12/26 11:51:44;;;;;;;;;;;-1.50;91.90;;;;;;5031853;28;20053;-69
2021/12/26 11:54:26;;;;;;;8.10;5.07;;;-1.50;93.30;;;;;;5014813;28;19928;-69
2021/12/26 11:57:04;;;;;;;;;;;-1.40;94.40;;;;;;5014794;28;20125;-69
2021/12/26 11:59:47;;;;;;;6.93;5.45;;;-1.40;94.60;;;;;;5014637;28;19918;-69
2021/12/26 12:02:33;;;;;;;9.60;5.05;;;-1.40;94.20;;;;;;5014344;28;20460;-69
2021/12/26 12:05:13;;;;;;;11.70;6.20;;;-1.40;94.40;;;;;;5016413;28;20050;-71
2021/12/26 12:08:18;;;;;;;10.40;5.60;;;-1.40;96.50;;;;;;5017395;28;20416;-71
2021/12/26 12:10:54;;;;;;;10.07;5.70;;;-1.30;94.80;;;;;;4994145;28;20490;-69
2021/12/26 12:13:22;;;;;;;7.00;5.22;;;-1.30;94.90;;;;;;5032452;28;20117;-70
2021/12/26 12:16:02;;;;;;;8.38;5.22;;;-1.30;95.80;;;;;;5032117;28;20052;-70
2021/12/26 12:18:31;;;;;;;9.00;5.93;;;-1.30;96.10;;;;;;5017651;28;20041;-70
2021/12/26 12:21:35;;;;;;;8.23;5.78;;;-1.20;95.80;;;;;;5015549;28;20046;-70
2021/12/26 12:24:11;;;;;;;10.25;6.18;;;-1.20;95.80;;;;;;4978766;28;20053;-70
2021/12/26 12:26:48;;;;;;;6.50;5.38;;;-1.20;96.90;;;;;;5011863;28;20119;-70
2021/12/26 12:29:39;;;;;;;9.15;5.53;;;-1.20;97.00;;;;;;5015810;28;20196;-70
2021/12/26 12:32:08;;;;;;;7.78;5.20;;;-1.10;99.00;;;;;;5016022;28;20046;-70
2021/12/26 12:34:55;;;;;;;7.05;5.38;;;-1.10;99.30;;;;;;5015397;28;20042;-70
2021/12/26 12:37:33;;;;;;;9.68;6.15;;;-1.00;96.50;;;;;;5016186;28;20217;-70
2021/12/26 12:40:29;;;;;;;8.88;5.78;;;-1.00;98.70;;;;;;5015764;28;20049;-70
2021/12/26 12:43:16;;;;;;;8.27;5.35;;;-1.00;97.60;;;;;;4997845;28;20048;-70
2021/12/26 12:45:54;;;;;;;11.10;6.18;;;-1.00;98.10;;;;;;5015670;28;20084;-70
2021/12/26 12:48:26;;;;;;;7.60;5.38;;;-1.00;98.30;;;;;;5021572;28;20046;-70
2021/12/26 12:51:02;;;;;;;9.35;5.63;;;-1.00;97.80;;;;;;5003081;28;20038;-71
2021/12/26 12:53:57;;;;;;;10.95;5.38;;;-0.90;98.70;;;;;;5035785;28;20478;-70
2021/12/26 12:56:33;;;;;;;8.85;5.35;;;-1.00;98.80;;;;;;5034967;28;20038;-69
2021/12/26 12:59:14;;;;;;;7.43;4.97;;;-0.90;99.70;;;;;;5026830;28;20128;-69